Sepulveda, California
Current Conditions -  °F | °C
As of 9:53 AM on Tuesday 21 Oct 2014 (Local Time) from KBUR Reporting Station
Haze Haze  
Wind Chill: 66°   Ceiling: Unl
Heat Index: 66°   Visibility: 6mi
Dew Point: 55°   Wind: 0mph
Humidity: 68%   Direction: NA
Pressure: 29.92"   Gusts: NA
Location:  34.1618°N, 118.281°W
Report Text: KBUR 211653Z 00000KT 6SM HZ CLR 19/13 A2992 RMK AO2 SLP123 T01890128
Loading
Personal Weather Stations






























Interactive Weather Map New forecast layout! Learn more

10-Day Weather Forecast

Advertisements
Track Severe Weather on mobile